Time;durP1;ratioP1;P1;durP2;ratioP2;P2;SDS_P1;SDS_P2;PMS_P1;PMS_P2;Temp;Humidity;BMP_temperature;BMP_pressure;BME280_temperature;BME280_humidity;BME280_pressure;Samples;Min_cycle;Max_cycle;Signal;HPM_P1;HPM_P2
2022/01/17 00:00:34;;;;;;;24.40;10.88;;;;;;;1.49;100.00;95152.97;4999584;28;20081;-85
2022/01/17 00:03:00;;;;;;;25.80;12.38;;;;;;;1.38;100.00;95147.38;4998055;28;20027;-85
2022/01/17 00:05:26;;;;;;;34.70;14.40;;;;;;;1.48;100.00;95147.03;4997966;28;20459;-85
2022/01/17 00:07:52;;;;;;;29.67;13.27;;;;;;;1.67;100.00;95149.91;4997869;28;20045;-84
2022/01/17 00:10:17;;;;;;;17.80;8.70;;;;;;;1.72;100.00;95155.28;4999438;28;20042;-85
2022/01/17 00:12:47;;;;;;;27.25;10.75;;;;;;;1.84;100.00;95164.09;4999385;28;20045;-85
2022/01/17 00:15:46;;;;;;;20.80;10.35;;;;;;;1.79;100.00;95163.06;4997170;28;20033;-85
2022/01/17 00:20:38;;;;;;;19.83;9.73;;;;;;;1.90;100.00;95156.56;4999613;28;20153;-84
2022/01/17 00:23:03;;;;;;;13.90;6.63;;;;;;;1.81;100.00;95156.72;4997765;28;20058;-85
2022/01/17 00:25:28;;;;;;;19.05;7.10;;;;;;;1.68;100.00;95151.50;4998767;28;20096;-85
2022/01/17 00:27:54;;;;;;;11.00;5.95;;;;;;;1.88;100.00;95161.91;4999095;28;20034;-85
2022/01/17 00:30:19;;;;;;;11.55;5.70;;;;;;;2.05;100.00;95162.41;4981623;28;20030;-85
2022/01/17 00:32:45;;;;;;;13.63;5.43;;;;;;;2.69;100.00;95162.94;4997585;28;20034;-85
2022/01/17 00:35:11;;;;;;;12.38;5.47;;;;;;;2.64;100.00;95169.69;5013755;28;20038;-85
2022/01/17 00:37:37;;;;;;;10.80;4.82;;;;;;;2.78;100.00;95165.34;4997519;28;20034;-85
2022/01/17 00:40:03;;;;;;;12.43;5.43;;;;;;;2.90;100.00;95162.94;5013690;28;20475;-85
2022/01/17 00:42:29;;;;;;;9.73;5.07;;;;;;;2.84;100.00;95172.28;4981123;28;20041;-85
2022/01/17 00:44:54;;;;;;;10.25;5.50;;;;;;;3.22;100.00;95170.91;4996877;28;20355;-85
2022/01/17 00:47:19;;;;;;;13.13;5.50;;;;;;;2.97;98.08;95161.16;4997444;28;20035;-85
2022/01/17 00:49:45;;;;;;;14.30;6.90;;;;;;;3.24;97.90;95164.53;4997561;28;20038;-85
2022/01/17 00:52:10;;;;;;;11.98;6.20;;;;;;;3.05;100.00;95165.34;4998701;28;20145;-85
2022/01/17 00:54:36;;;;;;;13.52;5.63;;;;;;;3.41;92.13;95163.31;4996975;28;20329;-85
2022/01/17 00:57:02;;;;;;;11.35;5.53;;;;;;;3.46;92.84;95169.50;4980843;28;20462;-85
2022/01/17 00:59:28;;;;;;;8.85;4.57;;;;;;;3.46;87.19;95166.91;4998472;28;20037;-85
2022/01/17 01:01:54;;;;;;;9.68;4.93;;;;;;;3.84;83.72;95173.19;4998374;28;20096;-85
2022/01/17 01:04:19;;;;;;;11.27;5.80;;;;;;;3.40;89.53;95172.88;4997795;28;20026;-85
2022/01/17 01:06:45;;;;;;;9.55;4.93;;;;;;;3.71;82.12;95174.00;4996857;28;20070;-85
2022/01/17 01:09:10;;;;;;;13.80;5.20;;;;;;;3.48;84.41;95174.44;4997059;28;20026;-85
2022/01/17 01:11:36;;;;;;;10.77;5.13;;;;;;;3.11;87.62;95180.06;4996835;28;20053;-85
2022/01/17 01:14:01;;;;;;;9.90;4.75;;;;;;;3.24;85.00;95177.47;4996528;28;20169;-84
2022/01/17 01:19:09;;;;;;;12.93;4.75;;;;;;;3.35;81.63;95188.22;4998225;28;20026;-85
2022/01/17 01:29:28;;;;;;;12.77;5.55;;;;;;;2.40;100.00;95189.94;4997816;28;20037;-85
2022/01/17 01:31:59;;;;;;;10.95;5.15;;;;;;;2.26;100.00;95195.09;4980527;28;20436;-85
2022/01/17 01:34:47;;;;;;;15.45;7.00;;;;;;;2.10;100.00;95206.56;4996486;28;20042;-85
2022/01/17 01:37:13;;;;;;;8.02;3.83;;;;;;;2.77;87.08;95195.56;4996958;28;20027;-85
2022/01/17 01:39:38;;;;;;;9.98;4.45;;;;;;;2.45;90.31;95200.50;4996670;28;20041;-85
2022/01/17 01:42:11;;;;;;;11.20;4.25;;;;;;;2.44;90.56;95200.69;4997545;28;20088;-85
2022/01/17 01:44:37;;;;;;;9.40;4.10;;;;;;;2.47;87.54;95202.91;4996127;28;20096;-84
2022/01/17 01:47:03;;;;;;;8.43;3.42;;;;;;;2.80;76.88;95208.16;4996140;28;20042;-85
2022/01/17 01:49:28;;;;;;;7.88;3.90;;;;;;;2.63;83.65;95209.50;4996513;28;20045;-85
2022/01/17 01:51:54;;;;;;;9.95;3.45;;;;;;;3.38;74.92;95208.56;4996561;28;20061;-85
2022/01/17 01:54:19;;;;;;;8.52;4.07;;;;;;;2.97;79.39;95211.13;4997263;28;20030;-85
2022/01/17 01:56:46;;;;;;;8.93;4.25;;;;;;;3.21;81.59;95221.91;4996133;28;20045;-85
2022/01/17 01:59:13;;;;;;;11.10;5.25;;;;;;;2.60;96.95;95225.41;4996403;28;20371;-85
2022/01/17 02:01:40;;;;;;;13.20;6.25;;;;;;;2.33;100.00;95231.31;5012403;28;20053;-85
2022/01/17 02:04:05;;;;;;;7.25;4.00;;;;;;;3.09;83.31;95215.72;5012658;28;20065;-85
2022/01/17 02:06:34;;;;;;;10.05;4.72;;;;;;;2.78;91.43;95225.63;4996053;28;20074;-84
2022/01/17 02:09:03;;;;;;;12.45;5.05;;;;;;;2.42;93.64;95219.00;4997417;28;20116;-84
2022/01/17 02:11:29;;;;;;;10.63;4.43;;;;;;;2.23;95.21;95216.16;4995994;28;20038;-85
2022/01/17 02:13:54;;;;;;;8.35;3.90;;;;;;;2.17;90.85;95214.34;4979307;28;20038;-85
2022/01/17 02:16:23;;;;;;;7.30;3.17;;;;;;;2.68;80.85;95205.31;4996038;28;20038;-85
2022/01/17 02:18:49;;;;;;;7.60;3.40;;;;;;;2.89;77.67;95200.19;4997356;28;20093;-84
2022/01/17 02:23:52;;;;;;;7.07;3.30;;;;;;;2.49;81.71;95214.63;4995787;28;20339;-85
2022/01/17 02:26:18;;;;;;;11.07;3.70;;;;;;;2.16;85.42;95206.78;5012080;28;20026;-85
2022/01/17 02:28:45;;;;;;;6.70;3.60;;;;;;;2.00;90.04;95208.69;4995843;28;20431;-85
2022/01/17 02:31:11;;;;;;;8.25;4.03;;;;;;;2.02;92.00;95208.50;4996149;28;20555;-84
2022/01/17 02:33:36;;;;;;;9.43;4.40;;;;;;;2.15;94.95;95207.75;4995742;28;20034;-84
2022/01/17 02:36:03;;;;;;;8.85;4.30;;;;;;;1.96;95.20;95210.06;4996986;28;20030;-85
2022/01/17 02:38:29;;;;;;;10.50;4.78;;;;;;;1.70;100.00;95203.75;5013686;28;20027;-85
2022/01/17 02:40:54;;;;;;;8.85;4.40;;;;;;;1.82;100.00;95214.38;5001154;28;20038;-85
2022/01/17 02:43:22;;;;;;;10.73;4.45;;;;;;;1.75;100.00;95209.19;4999552;28;20042;-85
2022/01/17 02:48:17;;;;;;;9.25;4.40;;;;;;;1.71;100.00;95218.28;4999966;28;20114;-85
2022/01/17 02:50:42;;;;;;;11.55;5.05;;;;;;;1.58;100.00;95211.25;4995486;28;20031;-85
2022/01/17 02:53:09;;;;;;;9.27;3.95;;;;;;;1.54;100.00;95210.84;4981462;28;20082;-85
2022/01/17 02:55:35;;;;;;;8.70;3.97;;;;;;;1.47;100.00;95209.19;4979839;28;20034;-85
2022/01/17 02:58:01;;;;;;;10.88;4.38;;;;;;;1.54;100.00;95215.22;4980045;28;20170;-85
2022/01/17 03:00:27;;;;;;;11.65;4.70;;;;;;;1.60;100.00;95214.44;4979878;28;20097;-85
2022/01/17 03:02:53;;;;;;;8.45;4.10;;;;;;;1.98;99.92;95208.91;4980060;28;20038;-85
2022/01/17 03:05:19;;;;;;;9.20;4.20;;;;;;;1.89;100.00;95214.41;4991010;28;20451;-85
2022/01/17 03:07:46;;;;;;;7.90;4.05;;;;;;;2.02;97.63;95219.66;5015426;28;20037;-85
2022/01/17 03:10:30;;;;;;;12.80;4.40;;;;;;;1.93;98.93;95219.00;4995867;28;20041;-85
2022/01/17 03:13:13;;;;;;;7.65;3.60;;;;;;;2.21;93.43;95212.94;4981071;28;20037;-85
2022/01/17 03:15:43;;;;;;;11.95;3.40;;;;;;;1.95;90.03;95206.69;4979031;28;20034;-85
2022/01/17 03:18:09;;;;;;;7.45;3.53;;;;;;;1.87;87.09;95206.84;4996552;28;20359;-85
2022/01/17 03:20:37;;;;;;;6.93;3.28;;;;;;;1.97;88.45;95209.06;4999195;28;20038;-85
2022/01/17 03:23:04;;;;;;;5.65;2.85;;;;;;;2.00;85.00;95206.09;4978325;28;20120;-85
2022/01/17 03:25:29;;;;;;;7.97;3.05;;;;;;;2.91;74.13;95201.59;4991674;28;20041;-85
2022/01/17 03:27:55;;;;;;;6.75;3.10;;;;;;;3.27;69.38;95194.41;4998768;28;20031;-85
2022/01/17 03:30:22;;;;;;;9.07;3.17;;;;;;;3.39;67.40;95203.19;4999105;28;20037;-85
2022/01/17 03:32:48;;;;;;;6.63;3.13;;;;;;;3.15;67.35;95199.38;4982703;28;20040;-85
2022/01/17 03:35:13;;;;;;;7.82;2.97;;;;;;;3.15;67.18;95208.97;4998239;28;20343;-85
2022/01/17 03:37:39;;;;;;;5.95;2.60;;;;;;;2.86;67.95;95208.34;4998904;28;20030;-85
2022/01/17 03:40:05;;;;;;;5.45;2.55;;;;;;;2.95;67.99;95207.94;5000042;28;20026;-85
2022/01/17 03:42:31;;;;;;;6.30;2.78;;;;;;;2.62;70.06;95210.47;5015175;28;20042;-85
2022/01/17 03:44:56;;;;;;;7.03;3.25;;;;;;;2.38;70.14;95200.47;4999384;28;20436;-85
2022/01/17 03:47:22;;;;;;;4.80;2.47;;;;;;;2.12;74.18;95207.16;4998604;28;20041;-85
2022/01/17 03:49:47;;;;;;;5.70;2.95;;;;;;;1.83;75.85;95201.25;4997919;28;20473;-85
2022/01/17 03:52:13;;;;;;;6.47;3.00;;;;;;;1.74;80.14;95202.41;5015279;28;20088;-85
2022/01/17 03:54:38;;;;;;;7.85;3.08;;;;;;;1.64;78.93;95195.00;4997963;28;20041;-85
2022/01/17 03:57:04;;;;;;;12.15;3.00;;;;;;;1.65;77.24;95199.19;4999711;28;20066;-85
2022/01/17 03:59:29;;;;;;;6.32;2.92;;;;;;;1.67;73.96;95196.41;4998242;28;20458;-85
2022/01/17 04:01:55;;;;;;;4.68;2.50;;;;;;;1.84;72.40;95186.56;4999670;28;20034;-85
2022/01/17 04:04:20;;;;;;;5.43;2.30;;;;;;;2.29;70.32;95191.28;4996227;28;20339;-85
2022/01/17 04:06:46;;;;;;;5.57;2.20;;;;;;;2.41;68.63;95183.78;4978913;28;20069;-85
2022/01/17 04:09:12;;;;;;;6.05;2.70;;;;;;;2.16;69.46;95186.88;4980051;28;20110;-85
2022/01/17 04:11:38;;;;;;;5.35;2.50;;;;;;;2.45;66.75;95190.16;4978790;28;20040;-85
2022/01/17 04:14:06;;;;;;;6.25;2.10;;;;;;;2.78;64.01;95206.75;4995580;28;20117;-85
2022/01/17 04:16:31;;;;;;;4.75;2.00;;;;;;;3.01;62.01;95210.72;4978759;28;20023;-85
2022/01/17 04:18:57;;;;;;;5.20;2.25;;;;;;;3.00;61.07;95206.56;4978388;28;20053;-85
2022/01/17 04:21:22;;;;;;;4.72;2.47;;;;;;;2.98;62.54;95204.19;4991359;28;20455;-85
2022/01/17 04:23:48;;;;;;;5.07;2.20;;;;;;;3.00;62.57;95201.38;4997620;28;20045;-85
2022/01/17 04:26:14;;;;;;;4.60;2.63;;;;;;;2.96;62.34;95198.41;4997713;28;20034;-85
2022/01/17 04:28:40;;;;;;;4.90;2.40;;;;;;;3.11;61.69;95211.13;4999124;28;20023;-85
2022/01/17 04:31:05;;;;;;;6.53;2.65;;;;;;;2.95;61.64;95217.53;4997921;28;20030;-85
2022/01/17 04:33:31;;;;;;;5.35;2.70;;;;;;;3.12;61.30;95217.91;4998704;28;20034;-85
2022/01/17 04:35:56;;;;;;;4.90;2.47;;;;;;;3.10;61.01;95210.34;4998862;28;20030;-85
2022/01/17 04:38:22;;;;;;;4.47;2.40;;;;;;;3.23;60.49;95209.56;4997501;28;20030;-85
2022/01/17 04:40:51;;;;;;;6.68;2.65;;;;;;;2.97;61.57;95211.13;5014106;28;20387;-85
2022/01/17 04:43:21;;;;;;;4.95;2.47;;;;;;;3.17;60.50;95206.97;4981324;28;20028;-85
2022/01/17 04:45:48;;;;;;;5.55;2.53;;;;;;;3.24;59.70;95205.97;4997311;28;20030;-85
2022/01/17 04:48:14;;;;;;;6.63;2.90;;;;;;;3.13;59.86;95206.56;4997582;28;20065;-85
2022/01/17 04:50:40;;;;;;;4.20;2.15;;;;;;;3.17;59.41;95219.91;4980875;28;20049;-85
2022/01/17 04:53:07;;;;;;;4.43;2.25;;;;;;;3.10;59.90;95219.91;4998676;28;20344;-85
2022/01/17 04:55:33;;;;;;;5.65;2.63;;;;;;;3.15;59.37;95212.34;4998223;28;20026;-85
2022/01/17 04:57:59;;;;;;;4.63;2.20;;;;;;;3.16;59.18;95203.59;4997446;28;20066;-85
2022/01/17 05:00:26;;;;;;;5.32;2.30;;;;;;;3.10;59.34;95212.13;4994733;28;20853;-85
2022/01/17 05:02:52;;;;;;;4.10;2.15;;;;;;;3.13;58.85;95224.69;4993985;28;20082;-85
2022/01/17 05:05:18;;;;;;;11.82;2.95;;;;;;;3.11;58.87;95213.72;4993634;28;20439;-85
2022/01/17 05:07:44;;;;;;;5.72;2.35;;;;;;;3.23;59.01;95211.38;4977480;28;20081;-85
2022/01/17 05:10:17;;;;;;;6.13;2.35;;;;;;;2.99;59.40;95212.72;4993994;28;20114;-85
2022/01/17 05:12:45;;;;;;;4.00;2.13;;;;;;;3.14;59.41;95215.91;4978947;28;20043;-85
2022/01/17 05:15:26;;;;;;;5.55;2.63;;;;;;;3.04;58.35;95228.47;4988236;28;20038;-85
2022/01/17 05:20:35;;;;;;;;;;;;;;;2.78;59.64;95232.63;4998440;28;20034;-85
2022/01/17 05:23:09;;;;;;;4.32;2.13;;;;;;;2.36;65.08;95238.69;4996578;28;20125;-85
2022/01/17 05:25:35;;;;;;;5.97;2.40;;;;;;;2.03;65.24;95234.19;5012923;28;20432;-85
2022/01/17 05:28:01;;;;;;;5.88;2.38;;;;;;;1.95;65.59;95240.31;5013231;28;20170;-85
2022/01/17 05:30:26;;;;;;;5.90;2.83;;;;;;;1.69;67.11;95241.75;5012840;28;20096;-85
2022/01/17 05:32:52;;;;;;;5.18;2.50;;;;;;;1.75;65.63;95242.78;4997915;28;20037;-85
2022/01/17 05:35:19;;;;;;;5.05;1.98;;;;;;;1.98;64.27;95250.25;5012429;28;20100;-84
2022/01/17 05:37:46;;;;;;;4.47;2.35;;;;;;;2.00;66.23;95241.50;4996669;28;20133;-85
2022/01/17 05:40:13;;;;;;;6.78;2.28;;;;;;;1.82;65.97;95243.59;4996601;28;20034;-85
2022/01/17 05:42:38;;;;;;;5.20;2.58;;;;;;;1.84;64.74;95241.63;4998135;28;20045;-84
2022/01/17 05:45:05;;;;;;;6.18;2.08;;;;;;;1.59;64.24;95233.53;5012425;28;20038;-85
2022/01/17 05:47:30;;;;;;;4.22;2.03;;;;;;;1.73;63.61;95231.84;4997980;28;20030;-85
2022/01/17 05:49:57;;;;;;;4.45;2.28;;;;;;;1.98;63.62;95239.09;5012579;28;20026;-84
2022/01/17 05:52:23;;;;;;;6.53;2.38;;;;;;;2.09;62.22;95235.97;5012758;28;20049;-84
2022/01/17 05:54:48;;;;;;;4.82;2.20;;;;;;;2.26;61.84;95236.47;4997189;28;20030;-84
2022/01/17 05:57:14;;;;;;;5.78;2.20;;;;;;;2.42;61.34;95234.53;4997650;28;20022;-84
2022/01/17 05:59:40;;;;;;;4.60;2.25;;;;;;;2.44;60.68;95231.72;5012563;28;20026;-84
2022/01/17 06:02:08;;;;;;;6.15;2.50;;;;;;;2.36;60.42;95233.50;5012809;28;20034;-84
2022/01/17 06:04:33;;;;;;;4.35;2.33;;;;;;;2.29;63.02;95230.09;5012181;28;20128;-84
2022/01/17 06:06:59;;;;;;;6.05;2.72;;;;;;;2.21;61.10;95232.84;4996282;28;20459;-84
2022/01/17 06:09:24;;;;;;;6.00;2.55;;;;;;;2.26;61.25;95240.81;4984689;28;20031;-84
2022/01/17 06:11:49;;;;;;;4.22;2.25;;;;;;;1.99;62.61;95243.28;4991705;28;20030;-84
2022/01/17 06:14:17;;;;;;;5.22;2.47;;;;;;;1.95;63.65;95247.25;4981135;28;20034;-84
2022/01/17 06:16:45;;;;;;;5.85;2.78;;;;;;;2.11;62.82;95238.38;4984479;28;20033;-84
2022/01/17 06:19:11;;;;;;;6.10;2.38;;;;;;;2.26;61.89;95243.41;4999543;28;20023;-84
2022/01/17 06:21:36;;;;;;;5.82;2.70;;;;;;;2.26;61.47;95251.16;4982971;28;20042;-84
2022/01/17 06:24:04;;;;;;;7.28;2.70;;;;;;;2.45;60.71;95251.44;4982586;28;20037;-84
2022/01/17 06:26:30;;;;;;;4.55;2.53;;;;;;;2.40;60.36;95255.41;4983133;28;20029;-85
2022/01/17 06:28:55;;;;;;;5.55;2.70;;;;;;;2.21;60.66;95250.94;4987420;28;20030;-84
2022/01/17 06:31:20;;;;;;;5.00;2.53;;;;;;;2.42;60.51;95255.22;5003851;28;20057;-84
2022/01/17 06:33:46;;;;;;;6.82;2.85;;;;;;;2.51;60.22;95246.31;5003154;28;20021;-84
2022/01/17 06:36:11;;;;;;;5.82;2.50;;;;;;;2.75;58.89;95241.56;5002596;28;20097;-84
2022/01/17 06:38:37;;;;;;;7.63;2.90;;;;;;;2.92;58.56;95244.59;5003756;28;20052;-84
2022/01/17 06:41:02;;;;;;;8.00;2.80;;;;;;;2.76;58.80;95230.22;5003543;28;20470;-85
2022/01/17 06:43:28;;;;;;;7.72;2.80;;;;;;;2.61;59.24;95224.41;5018430;28;20042;-84
2022/01/17 06:45:53;;;;;;;5.18;2.50;;;;;;;2.62;59.84;95226.81;5018530;28;20037;-84
2022/01/17 06:48:19;;;;;;;6.30;2.60;;;;;;;2.94;58.70;95231.44;5018541;28;20022;-85
2022/01/17 06:50:44;;;;;;;5.47;2.50;;;;;;;2.99;57.99;95234.25;5002720;28;20058;-85
2022/01/17 06:53:09;;;;;;;7.97;2.47;;;;;;;2.77;58.41;95236.22;5018830;28;20034;-85
2022/01/17 06:55:35;;;;;;;7.47;2.67;;;;;;;2.68;58.83;95254.50;5003177;28;20037;-85
2022/01/17 06:58:01;;;;;;;6.25;2.80;;;;;;;2.56;61.89;95253.44;5018556;28;20121;-84
2022/01/17 07:00:26;;;;;;;5.70;2.60;;;;;;;2.10;64.67;95271.19;5018832;28;20060;-85
2022/01/17 07:02:52;;;;;;;5.15;2.40;;;;;;;1.72;66.95;95270.75;5018760;28;20034;-84
2022/01/17 07:05:17;;;;;;;6.05;2.80;;;;;;;1.43;67.52;95267.38;5018169;28;20038;-85
2022/01/17 07:07:43;;;;;;;5.93;2.38;;;;;;;1.59;67.33;95279.22;5003409;28;20425;-84
2022/01/17 07:10:09;;;;;;;10.90;2.58;;;;;;;1.58;66.43;95281.00;5018622;28;20156;-84
2022/01/17 07:12:36;;;;;;;6.32;2.88;;;;;;;1.86;66.31;95289.72;5018648;28;20109;-84
2022/01/17 07:15:03;;;;;;;6.78;2.97;;;;;;;1.88;66.58;95292.94;5018062;28;20113;-84
2022/01/17 07:17:28;;;;;;;7.03;3.28;;;;;;;1.95;65.42;95297.16;5018343;28;20034;-84
2022/01/17 07:19:54;;;;;;;6.72;2.65;;;;;;;2.11;64.89;95295.25;5018572;28;20034;-84
2022/01/17 07:22:19;;;;;;;5.47;2.33;;;;;;;2.26;63.51;95301.09;5018280;28;20031;-84
2022/01/17 07:24:47;;;;;;;6.57;2.28;;;;;;;2.15;67.74;95300.81;5015313;28;20030;-85
2022/01/17 07:27:16;;;;;;;6.40;2.30;;;;;;;2.08;65.49;95305.97;5000212;28;20030;-85
2022/01/17 07:29:42;;;;;;;5.80;2.88;;;;;;;1.97;65.52;95302.13;5015349;28;20030;-85
2022/01/17 07:32:08;;;;;;;6.32;3.03;;;;;;;1.96;67.47;95305.69;5015246;28;20128;-85
2022/01/17 07:34:34;;;;;;;6.68;2.40;;;;;;;2.26;67.01;95303.69;5014973;28;20062;-85
2022/01/17 07:36:59;;;;;;;6.75;2.10;;;;;;;2.21;67.60;95318.19;5015192;28;20081;-84
2022/01/17 07:39:26;;;;;;;5.88;2.03;;;;;;;2.33;66.51;95324.41;5015225;28;20087;-85
2022/01/17 07:41:51;;;;;;;5.43;2.30;;;;;;;2.29;67.18;95319.81;5015274;28;20428;-85
2022/01/17 07:44:21;;;;;;;4.82;2.03;;;;;;;2.23;67.71;95326.53;5014669;28;20045;-85
2022/01/17 07:46:49;;;;;;;7.28;2.03;;;;;;;2.35;67.88;95344.91;5014615;28;20061;-85
2022/01/17 07:49:19;;;;;;;3.15;1.60;;;;;;;2.61;65.91;95357.19;5014828;28;20073;-85
2022/01/17 07:51:46;;;;;;;4.07;2.05;;;;;;;2.79;62.25;95348.09;5014196;28;20245;-85
2022/01/17 07:54:14;;;;;;;5.85;2.10;;;;;;;2.88;68.29;95366.84;4998477;28;20030;-85
2022/01/17 07:56:40;;;;;;;4.00;1.83;;;;;;;2.82;69.81;95386.53;5014764;28;20052;-85
2022/01/17 07:59:07;;;;;;;6.05;2.30;;;;;;;2.79;67.35;95364.41;4999767;28;20061;-85
2022/01/17 08:01:33;;;;;;;4.35;1.90;;;;;;;2.71;67.11;95346.47;4999342;28;20022;-84
2022/01/17 08:03:58;;;;;;;3.97;2.05;;;;;;;2.68;66.57;95332.13;4999257;28;20428;-85
2022/01/17 08:06:24;;;;;;;3.70;1.75;;;;;;;2.73;66.37;95326.38;5014823;28;20432;-85
2022/01/17 08:08:49;;;;;;;4.10;1.92;;;;;;;2.83;67.46;95308.69;4999532;28;20034;-85
2022/01/17 08:11:15;;;;;;;5.78;2.20;;;;;;;2.91;68.35;95318.06;4999202;28;20053;-85
2022/01/17 08:13:41;;;;;;;4.15;1.92;;;;;;;2.86;69.38;95314.47;4997796;28;20443;-85
2022/01/17 08:16:07;;;;;;;4.47;2.05;;;;;;;3.03;72.92;95302.75;5014611;28;20041;-85
2022/01/17 08:18:32;;;;;;;4.20;2.05;;;;;;;3.05;72.07;95320.69;4999422;28;20027;-85
2022/01/17 08:20:58;;;;;;;3.60;1.75;;;;;;;3.07;63.56;95313.53;5014436;28;20351;-85
2022/01/17 08:23:25;;;;;;;3.85;1.85;;;;;;;3.30;62.94;95302.00;5014185;28;20029;-85
2022/01/17 08:25:50;;;;;;;4.32;2.10;;;;;;;3.31;62.82;95303.59;5013955;28;20037;-85
2022/01/17 08:28:16;;;;;;;5.43;1.58;;;;;;;3.42;62.82;95310.00;5014017;28;20030;-85
2022/01/17 08:30:42;;;;;;;3.50;1.75;;;;;;;3.45;64.33;95312.19;5013977;28;20030;-85
2022/01/17 08:33:07;;;;;;;4.88;2.08;;;;;;;3.50;68.58;95312.38;4997826;28;20455;-85
2022/01/17 08:35:33;;;;;;;5.38;1.98;;;;;;;3.47;67.34;95329.13;5013619;28;20108;-85
2022/01/17 08:37:58;;;;;;;4.35;2.00;;;;;;;3.72;67.71;95325.91;5014299;28;20026;-85
2022/01/17 08:40:24;;;;;;;3.95;1.92;;;;;;;3.89;70.88;95328.13;4998883;28;20037;-85
2022/01/17 08:42:50;;;;;;;3.60;1.63;;;;;;;3.92;67.30;95340.69;4998921;28;20030;-85
2022/01/17 08:45:18;;;;;;;4.28;1.98;;;;;;;3.93;66.89;95343.06;5013346;28;20059;-85
2022/01/17 08:47:49;;;;;;;2.95;1.52;;;;;;;3.98;64.57;95334.69;5013864;28;20027;-85
2022/01/17 08:50:16;;;;;;;3.30;1.63;;;;;;;3.94;67.72;95333.50;5013308;28;20034;-85
2022/01/17 08:52:44;;;;;;;5.15;1.80;;;;;;;3.92;75.24;95332.91;5013932;28;20034;-85
2022/01/17 08:55:10;;;;;;;4.35;2.03;;;;;;;4.07;71.46;95325.72;4998311;28;20033;-85
2022/01/17 08:57:36;;;;;;;3.50;1.95;;;;;;;4.09;69.96;95328.09;5013760;28;20030;-85
2022/01/17 09:00:04;;;;;;;3.22;1.80;;;;;;;4.14;68.83;95327.47;5013495;28;20030;-85
2022/01/17 09:02:30;;;;;;;6.88;2.10;;;;;;;4.09;69.05;95320.31;4998522;28;20168;-85
2022/01/17 09:04:55;;;;;;;5.30;2.63;;;;;;;4.10;66.86;95312.31;5012989;28;20070;-85
2022/01/17 09:07:20;;;;;;;3.40;1.73;;;;;;;4.19;67.62;95299.16;5013581;28;20038;-85
2022/01/17 09:09:46;;;;;;;4.35;2.00;;;;;;;4.47;60.36;95296.25;4998079;28;20030;-84
2022/01/17 09:12:13;;;;;;;4.78;1.90;;;;;;;4.32;64.57;95286.16;4998378;28;20355;-85
2022/01/17 09:14:39;;;;;;;4.57;2.20;;;;;;;4.39;65.20;95279.13;5013015;28;20133;-85
2022/01/17 09:17:09;;;;;;;4.55;2.00;;;;;;;4.50;67.86;95303.63;4998291;28;20444;-85
2022/01/17 09:19:36;;;;;;;3.72;1.83;;;;;;;4.43;68.28;95325.41;5013142;28;20455;-84
2022/01/17 09:22:03;;;;;;;2.80;1.70;;;;;;;4.43;68.45;95364.34;5012992;28;20038;-85
2022/01/17 09:24:29;;;;;;;4.95;2.08;;;;;;;4.60;69.10;95394.06;5012679;28;20030;-85
2022/01/17 09:26:54;;;;;;;4.88;2.38;;;;;;;4.65;67.83;95399.44;5013293;28;20034;-85
2022/01/17 09:29:20;;;;;;;5.03;2.20;;;;;;;4.85;65.56;95411.53;5012965;28;20120;-85
2022/01/17 09:31:46;;;;;;;7.75;1.90;;;;;;;5.11;61.02;95403.88;4996535;28;20065;-85
2022/01/17 09:34:11;;;;;;;4.95;1.88;;;;;;;5.03;59.87;95374.53;5012720;28;20076;-85
2022/01/17 09:36:37;;;;;;;3.03;1.75;;;;;;;4.99;58.39;95385.53;5012864;28;20061;-85
2022/01/17 09:39:05;;;;;;;3.47;1.90;;;;;;;4.99;60.00;95378.56;4997991;28;20042;-85
2022/01/17 09:41:31;;;;;;;3.45;1.70;;;;;;;5.05;61.10;95333.56;5012789;28;20041;-85
2022/01/17 09:43:57;;;;;;;3.08;1.65;;;;;;;5.20;54.89;95329.88;5012528;28;20120;-85
2022/01/17 09:46:26;;;;;;;3.88;1.90;;;;;;;5.27;61.87;95343.63;5013065;28;20072;-85
2022/01/17 09:49:00;;;;;;;2.63;1.48;;;;;;;5.32;64.34;95335.22;5011737;28;20057;-85
2022/01/17 09:54:05;;;;;;;4.05;2.08;;;;;;;5.35;58.90;95314.78;4997350;28;20093;-85
2022/01/17 09:56:30;;;;;;;7.70;1.77;;;;;;;5.23;57.71;95309.47;4991371;28;20031;-85
2022/01/17 09:58:57;;;;;;;4.85;2.05;;;;;;;5.33;56.33;95323.81;4976752;28;20023;-84
2022/01/17 10:01:24;;;;;;;3.53;1.70;;;;;;;5.33;57.26;95327.19;4977923;28;20448;-84
2022/01/17 10:03:51;;;;;;;3.42;1.60;;;;;;;5.40;57.32;95316.75;4976658;28;20421;-85
2022/01/17 10:06:16;;;;;;;4.72;2.15;;;;;;;5.47;57.73;95309.72;4977005;28;20424;-84
2022/01/17 10:08:42;;;;;;;2.83;1.70;;;;;;;5.51;58.83;95313.47;4976837;28;20035;-84
2022/01/17 10:11:15;;;;;;;3.97;2.00;;;;;;;5.77;58.82;95303.09;4976561;28;20053;-84
2022/01/17 10:13:45;;;;;;;3.78;1.98;;;;;;;5.86;57.76;95303.59;4976621;28;20178;-84
2022/01/17 10:16:18;;;;;;;4.13;1.90;;;;;;;5.88;60.80;95304.19;4976970;28;20035;-84
2022/01/17 10:19:00;;;;;;;4.03;2.05;;;;;;;5.91;60.01;95290.75;4976964;28;20046;-84
2022/01/17 10:21:46;;;;;;;3.78;1.75;;;;;;;5.92;59.51;95295.75;4976648;28;20152;-85
2022/01/17 10:24:20;;;;;;;3.33;2.00;;;;;;;5.98;57.10;95286.28;4977617;28;20128;-85
2022/01/17 10:35:22;;;;;;;5.43;2.20;;;;;;;6.26;59.85;95305.06;4976194;28;20085;-85
2022/01/17 10:38:15;;;;;;;4.25;2.13;;;;;;;6.30;60.93;95320.00;4976391;28;20034;-85
2022/01/17 10:40:49;;;;;;;5.30;1.88;;;;;;;6.61;60.48;95312.28;4977889;28;20043;-85
2022/01/17 10:43:21;;;;;;;5.10;2.17;;;;;;;6.59;60.39;95316.91;4976419;28;20035;-85
2022/01/17 10:45:47;;;;;;;3.97;1.95;;;;;;;6.68;60.33;95305.19;4976233;28;20356;-84
2022/01/17 10:48:12;;;;;;;3.85;2.15;;;;;;;6.95;56.96;95294.44;4960374;28;20035;-84
2022/01/17 10:50:49;;;;;;;3.80;1.90;;;;;;;6.92;57.16;95280.06;4976306;28;20038;-84
2022/01/17 10:53:19;;;;;;;3.83;1.95;;;;;;;6.91;56.50;95290.69;4978057;28;20360;-85
2022/01/17 10:55:54;;;;;;;7.00;2.30;;;;;;;6.92;57.20;95305.28;4976191;28;20114;-85
2022/01/17 10:58:26;;;;;;;2.97;1.80;;;;;;;7.16;55.96;95310.59;4976514;28;20035;-84
2022/01/17 11:00:55;;;;;;;5.40;2.33;;;;;;;7.25;58.41;95311.06;4979836;28;20045;-84
2022/01/17 11:03:24;;;;;;;4.43;2.17;;;;;;;7.13;56.11;95311.06;4981035;28;20393;-85
2022/01/17 11:05:55;;;;;;;5.97;2.30;;;;;;;7.18;56.25;95300.75;4979332;28;20066;-85
2022/01/17 11:08:23;;;;;;;3.72;1.92;;;;;;;7.36;56.82;95303.28;4995515;28;20462;-85
2022/01/17 11:10:53;;;;;;;4.07;2.13;;;;;;;7.31;56.27;95299.75;4995808;28;20045;-84
2022/01/17 11:13:20;;;;;;;3.80;2.20;;;;;;;7.36;55.11;95300.66;4979951;28;20472;-84
2022/01/17 11:15:49;;;;;;;3.80;2.25;;;;;;;7.36;54.01;95294.69;4979575;28;20039;-85
2022/01/17 11:18:22;;;;;;;10.43;2.50;;;;;;;7.58;53.98;95291.53;4979897;28;20356;-85
2022/01/17 11:20:50;;;;;;;5.25;2.17;;;;;;;7.69;54.27;95282.16;4981081;28;20034;-84
2022/01/17 11:23:16;;;;;;;6.95;2.42;;;;;;;7.99;50.71;95278.63;4979720;28;20034;-84
2022/01/17 11:25:43;;;;;;;3.50;1.73;;;;;;;8.01;51.64;95273.97;4979369;28;20042;-84
2022/01/17 11:28:09;;;;;;;4.10;1.85;;;;;;;8.00;50.67;95260.13;4979654;28;20031;-84
2022/01/17 11:30:37;;;;;;;4.13;1.92;;;;;;;8.17;49.05;95254.19;4979646;28;20042;-84
2022/01/17 11:33:04;;;;;;;5.70;2.33;;;;;;;8.03;49.74;95245.81;4995447;28;20026;-84
2022/01/17 11:35:31;;;;;;;4.47;2.10;;;;;;;8.07;50.47;95245.16;4979140;28;20442;-84
2022/01/17 11:37:59;;;;;;;3.75;2.00;;;;;;;8.01;50.68;95268.75;4982323;28;20039;-84
2022/01/17 11:40:33;;;;;;;5.47;2.50;;;;;;;7.99;51.11;95295.06;4999024;28;20058;-84
2022/01/17 11:43:16;;;;;;;5.63;2.55;;;;;;;8.22;51.45;95283.03;5000058;28;20037;-84
2022/01/17 11:45:43;;;;;;;3.33;1.80;;;;;;;8.45;51.96;95284.00;4998288;28;20038;-84
2022/01/17 11:48:16;;;;;;;4.45;2.13;;;;;;;8.21;51.53;95277.00;4998685;28;20034;-84
2022/01/17 11:50:44;;;;;;;3.92;2.00;;;;;;;8.16;52.40;95268.28;4999729;28;20030;-84
2022/01/17 11:53:09;;;;;;;3.63;2.10;;;;;;;8.23;52.03;95257.72;4998738;28;20077;-84
2022/01/17 11:55:44;;;;;;;5.63;2.05;;;;;;;8.27;51.96;95264.84;4999469;28;20125;-85
2022/01/17 11:58:32;;;;;;;4.25;2.00;;;;;;;8.56;51.29;95238.03;4999720;28;20340;-84
2022/01/17 12:00:57;;;;;;;5.22;1.80;;;;;;;8.59;49.36;95220.06;4998229;28;20034;-84
2022/01/17 12:03:48;;;;;;;3.78;1.90;;;;;;;8.58;48.60;95231.53;4998432;28;20035;-84
2022/01/17 12:06:33;;;;;;;4.68;2.10;;;;;;;8.81;48.00;95248.16;4998038;28;20505;-84
2022/01/17 12:09:21;;;;;;;3.20;1.58;;;;;;;9.47;44.69;95218.13;4999548;28;20042;-84
2022/01/17 12:12:11;;;;;;;2.55;1.10;;;;;;;9.43;39.28;95220.41;4998877;28;20053;-84